Aviation Digital Data Service (ADDS)

Output produced by METARs form (1929 UTC 17 July 2018)
found at http://aviationweather.gov/adds/metars/
 
METAR text: KMYV 171853Z AUTO 29005KT 10SM CLR 32/17 A2994 RMK AO2 SLP142 T03220167
Conditions at: KMYV (MARYSVILLE , CA, US) observed 1853 UTC 17 July 2018
Temperature: 32.2°C (90°F)
Dewpoint: 16.7°C (62°F) [RH = 40%]
Pressure (altimeter): 29.94 inches Hg (1014.0 mb)
[Sea-level pressure: 1014.2 mb]
Winds: from the WNW (290 degrees) at 6 MPH (5 knots; 2.6 m/s)
Visibility: 10 or more miles (16+ km)
Ceiling: at least 12,000 feet AGL
Clouds: sky clear below 12,000 feet AGL
Weather: automated observation with no human augmentation;
there may or may not be significant weather present at this time